X  Κλείσε Στοιχεία αεροπορικών μετεωρολογικών δεδομένων METAR     LGRX Patras Araxos Agamemnon Airport
Θερμοκρασία
24°C Θερμοκρασία
15°C Σημείο δρόσου
57% Υγρασία



Άνεμος
0 KM/H
0 MPH
0 M/S
0 KTS



Άπνοια
Β
Τρέχουσες Συνθήκες

Καθαρός Καθαρός
Πίεση 1010.92 (hPa) - 29.85 (inHg)
Ορατότητα 6.2 (μίλια) - 10 (km)
Aεροδρόμιο
Κωδικός Αεροδρομίου LGRX

Τοποθεσία: Patras Araxos Agamemnon Airport
Απόσταση: 108 (km)

Metar:
LGRX 110150Z 00000KT CAVOK 24/15 Q1011

ώρα: 11-08-2022 04:50 EEST